This is the latest recevied weather packets stored in our database for station/object KE4ODN. If no packets are shown the sender has not sent any weather packets the latest 10 day(s).
| Time | Temp. | Humidity | Pressure | Rain* | Wind** | Luminosity | Snow |
|---|---|---|---|---|---|---|---|
| 1778021305 | 23.89° C | 64% | 1011.6 hPa | 0 mm | - | 65 W/m² | - |
| 1778020804 | 23.89° C | 63% | 1011.6 hPa | 0 mm | - | 77 W/m² | - |
| 1778017705 | 23.89° C | 61% | 1011.7 hPa | 0 mm | - | 69 W/m² | - |
| 1778016724 | 24.44° C | 58% | 1011.7 hPa | 0 mm | - | 104 W/m² | - |
| 1778016505 | 24.44° C | 57% | 1011.7 hPa | 0 mm | - | 105 W/m² | - |
| 1778014564 | 25.56° C | 55% | 1011.5 hPa | 0 mm | - | 207 W/m² | - |
| 1778012665 | 25° C | 58% | 1011.7 hPa | 0 mm | - | 207 W/m² | - |
| 1778011705 | 25.56° C | 56% | 1012 hPa | 0 mm | - | 803 W/m² | - |
| 1778009785 | 25° C | 61% | 1012.5 hPa | 0 mm | - | 918 W/m² | - |
| 1778009044 | 25° C | 58% | 1012.7 hPa | 0 mm | - | 257 W/m² | - |
| 1778006884 | 24.44° C | 59% | 1013.2 hPa | 0 mm | - | 888 W/m² | - |
| 1778006164 | 25° C | 56% | 1013.2 hPa | 0 mm | - | 638 W/m² | - |
| 1778005444 | 24.44° C | 60% | 1013.5 hPa | 0 mm | - | 958 W/m² | - |
| 1778004985 | 24.44° C | 59% | 1013.4 hPa | 0 mm | - | 360 W/m² | - |
| 1778002804 | 23.89° C | 60% | 1014.1 hPa | 0 mm | - | 714 W/m² | - |
| 1778002564 | 23.33° C | 62% | 1014 hPa | 0 mm | - | 652 W/m² | - |
| 1778002345 | 23.89° C | 60% | 1014 hPa | 0 mm | - | 338 W/m² | - |
| 1778002084 | 23.89° C | 59% | 1014.1 hPa | 0 mm | - | 735 W/m² | - |
| 1778001844 | 23.89° C | 59% | 1014.1 hPa | 0 mm | - | 691 W/m² | - |
| 1778001364 | 23.33° C | 61% | 1014.1 hPa | 0 mm | - | 884 W/m² | - |
| 1778001145 | 23.33° C | 59% | 1014.1 hPa | 0 mm | - | 879 W/m² | - |
| 1778000644 | 23.33° C | 59% | 1014.3 hPa | 0 mm | - | 353 W/m² | - |
| 1777996804 | 22.78° C | 64% | 1014.5 hPa | 0 mm | - | 893 W/m² | - |
| 1777996564 | 22.78° C | 65% | 1014.4 hPa | 0 mm | - | 926 W/m² | - |
| 1777995865 | 22.22° C | 66% | 1014.6 hPa | 0 mm | - | 937 W/m² | - |
* Rain latest hour (hover to see other rain measurements)
** Current wind speed in m/s (hover to see current wind gust speed)